Pagina principale
METAR-TAF:

METAR-TAF

Aeroporti :

Dübendorf, Svizzera

latitudine: 47-23-55N, longitudine: 8-38-53E, altezza: 448 m

Osservazione

Il bollettino è stato emesso 14 minuti fa, alle 15:50 UTC
Vento 3 kt da direzioni variabili
Temperature 21°C
Umidità 35%
Pressione 1023 hPa
Visibilità 10 km o più

METAR: LSMD 231550Z AUTO VRB03KT 9999NDV NCD 21/05 Q1023 RMK

Ora: 18:04 (16:04 UTC)


TAF: mancante

Osservazioni e previsioni meteorologiche di più di 4000 aeroporti (messaggi METAR e TAF).

Le stazioni disponibili sono rappresentate dai dischi gialli e rossi sulla carta.

Puntare il mouse per vedere il nome della stazione.

Clicca sopra per visualizzare le osservazioni e previsioni meteorologiche.

Per cambiare la mappa : fare clic sui pulsanti verdi con una croce nera per ingrandire, il pulsante verde con un trattino per diminuire, o sulla freccia verde per le mappe adiacenti.


METAR-TAF: